sensor_id;sensor_type;location;lat;lon;timestamp;P1;P2;P0
74880;PMS5003;63427;49.654;6.596;2023-11-22T00:00:26;4;3;
74880;PMS5003;63427;49.654;6.596;2023-11-22T00:02:52;5;5;
74880;PMS5003;63427;49.654;6.596;2023-11-22T00:05:18;3;3;
74880;PMS5003;63427;49.654;6.596;2023-11-22T00:07:43;3;3;
74880;PMS5003;63427;49.654;6.596;2023-11-22T00:10:09;3;3;
74880;PMS5003;63427;49.654;6.596;2023-11-22T00:12:34;5;4;
74880;PMS5003;63427;49.654;6.596;2023-11-22T00:15:00;4;4;
74880;PMS5003;63427;49.654;6.596;2023-11-22T00:17:26;6;5;
74880;PMS5003;63427;49.654;6.596;2023-11-22T00:34:25;7;7;
74880;PMS5003;63427;49.654;6.596;2023-11-22T00:36:51;5;5;
74880;PMS5003;63427;49.654;6.596;2023-11-22T00:39:16;6;6;
74880;PMS5003;63427;49.654;6.596;2023-11-22T00:41:42;5;5;
74880;PMS5003;63427;49.654;6.596;2023-11-22T00:44:07;4;4;
74880;PMS5003;63427;49.654;6.596;2023-11-22T00:46:33;6;6;
74880;PMS5003;63427;49.654;6.596;2023-11-22T00:48:59;8;7;
74880;PMS5003;63427;49.654;6.596;2023-11-22T00:51:24;6;5;
74880;PMS5003;63427;49.654;6.596;2023-11-22T00:53:50;8;8;
74880;PMS5003;63427;49.654;6.596;2023-11-22T00:56:22;7;6;
74880;PMS5003;63427;49.654;6.596;2023-11-22T00:58:41;7;7;
74880;PMS5003;63427;49.654;6.596;2023-11-22T01:01:13;5;5;
74880;PMS5003;63427;49.654;6.596;2023-11-22T01:03:33;7;7;
74880;PMS5003;63427;49.654;6.596;2023-11-22T01:05:58;5;5;
74880;PMS5003;63427;49.654;6.596;2023-11-22T01:08:24;5;5;
74880;PMS5003;63427;49.654;6.596;2023-11-22T01:10:49;8;8;
74880;PMS5003;63427;49.654;6.596;2023-11-22T01:13:15;8;8;
74880;PMS5003;63427;49.654;6.596;2023-11-22T01:15:41;7;7;
74880;PMS5003;63427;49.654;6.596;2023-11-22T01:18:06;8;8;
74880;PMS5003;63427;49.654;6.596;2023-11-22T01:20:32;7;7;
74880;PMS5003;63427;49.654;6.596;2023-11-22T01:22:58;8;7;
74880;PMS5003;63427;49.654;6.596;2023-11-22T01:25:23;6;6;
74880;PMS5003;63427;49.654;6.596;2023-11-22T01:30:15;8;8;
74880;PMS5003;63427;49.654;6.596;2023-11-22T01:32:40;9;8;
74880;PMS5003;63427;49.654;6.596;2023-11-22T01:35:06;7;7;
74880;PMS5003;63427;49.654;6.596;2023-11-22T01:39:58;7;7;
74880;PMS5003;63427;49.654;6.596;2023-11-22T01:42:23;7;7;
74880;PMS5003;63427;49.654;6.596;2023-11-22T01:44:49;6;6;
74880;PMS5003;63427;49.654;6.596;2023-11-22T01:47:14;11;11;
74880;PMS5003;63427;49.654;6.596;2023-11-22T01:49:40;6;6;
74880;PMS5003;63427;49.654;6.596;2023-11-22T01:52:06;8;7;
74880;PMS5003;63427;49.654;6.596;2023-11-22T01:54:31;6;6;
74880;PMS5003;63427;49.654;6.596;2023-11-22T02:01:48;6;5;
74880;PMS5003;63427;49.654;6.596;2023-11-22T02:04:14;7;7;
74880;PMS5003;63427;49.654;6.596;2023-11-22T02:06:40;7;7;
74880;PMS5003;63427;49.654;6.596;2023-11-22T02:09:06;6;6;
74880;PMS5003;63427;49.654;6.596;2023-11-22T02:11:31;7;6;
74880;PMS5003;63427;49.654;6.596;2023-11-22T02:13:57;7;7;
74880;PMS5003;63427;49.654;6.596;2023-11-22T02:16:23;5;5;
74880;PMS5003;63427;49.654;6.596;2023-11-22T02:18:48;7;7;
74880;PMS5003;63427;49.654;6.596;2023-11-22T02:21:16;8;8;
74880;PMS5003;63427;49.654;6.596;2023-11-22T02:23:40;7;7;
74880;PMS5003;63427;49.654;6.596;2023-11-22T02:26:06;7;7;
74880;PMS5003;63427;49.654;6.596;2023-11-22T02:28:31;9;9;
74880;PMS5003;63427;49.654;6.596;2023-11-22T02:30:57;9;9;
74880;PMS5003;63427;49.654;6.596;2023-11-22T02:33:22;8;8;
74880;PMS5003;63427;49.654;6.596;2023-11-22T02:35:48;9;9;
74880;PMS5003;63427;49.654;6.596;2023-11-22T02:38:14;9;8;
74880;PMS5003;63427;49.654;6.596;2023-11-22T02:40:40;7;7;
74880;PMS5003;63427;49.654;6.596;2023-11-22T02:43:06;6;6;
74880;PMS5003;63427;49.654;6.596;2023-11-22T02:45:31;7;7;
74880;PMS5003;63427;49.654;6.596;2023-11-22T02:47:59;6;6;
74880;PMS5003;63427;49.654;6.596;2023-11-22T02:50:23;8;8;
74880;PMS5003;63427;49.654;6.596;2023-11-22T02:52:49;7;6;
74880;PMS5003;63427;49.654;6.596;2023-11-22T02:55:14;11;10;
74880;PMS5003;63427;49.654;6.596;2023-11-22T02:57:40;10;10;
74880;PMS5003;63427;49.654;6.596;2023-11-22T03:00:06;4;4;
74880;PMS5003;63427;49.654;6.596;2023-11-22T03:02:31;6;6;
74880;PMS5003;63427;49.654;6.596;2023-11-22T03:04:57;7;7;
74880;PMS5003;63427;49.654;6.596;2023-11-22T03:07:23;6;6;
74880;PMS5003;63427;49.654;6.596;2023-11-22T03:09:49;7;7;
74880;PMS5003;63427;49.654;6.596;2023-11-22T03:12:15;7;7;
74880;PMS5003;63427;49.654;6.596;2023-11-22T03:14:40;7;7;
74880;PMS5003;63427;49.654;6.596;2023-11-22T03:17:06;10;8;
74880;PMS5003;63427;49.654;6.596;2023-11-22T03:22:00;7;7;
74880;PMS5003;63427;49.654;6.596;2023-11-22T03:36:32;7;7;
74880;PMS5003;63427;49.654;6.596;2023-11-22T03:38:59;7;6;
74880;PMS5003;63427;49.654;6.596;2023-11-22T03:41:24;7;7;
74880;PMS5003;63427;49.654;6.596;2023-11-22T03:43:50;7;7;
74880;PMS5003;63427;49.654;6.596;2023-11-22T03:46:16;7;7;
74880;PMS5003;63427;49.654;6.596;2023-11-22T03:48:41;6;6;
74880;PMS5003;63427;49.654;6.596;2023-11-22T03:51:07;6;6;
74880;PMS5003;63427;49.654;6.596;2023-11-22T03:53:33;7;7;
74880;PMS5003;63427;49.654;6.596;2023-11-22T03:55:59;6;6;
74880;PMS5003;63427;49.654;6.596;2023-11-22T03:58:25;7;7;
74880;PMS5003;63427;49.654;6.596;2023-11-22T04:03:16;7;7;
74880;PMS5003;63427;49.654;6.596;2023-11-22T04:05:42;7;7;
74880;PMS5003;63427;49.654;6.596;2023-11-22T04:08:08;11;10;
74880;PMS5003;63427;49.654;6.596;2023-11-22T04:10:33;7;6;
74880;PMS5003;63427;49.654;6.596;2023-11-22T04:12:59;11;11;
74880;PMS5003;63427;49.654;6.596;2023-11-22T04:15:25;11;10;
74880;PMS5003;63427;49.654;6.596;2023-11-22T04:17:52;9;7;
74880;PMS5003;63427;49.654;6.596;2023-11-22T04:20:17;7;7;
74880;PMS5003;63427;49.654;6.596;2023-11-22T04:22:43;9;9;
74880;PMS5003;63427;49.654;6.596;2023-11-22T04:25:08;10;10;
74880;PMS5003;63427;49.654;6.596;2023-11-22T04:27:34;6;6;
74880;PMS5003;63427;49.654;6.596;2023-11-22T04:30:00;11;11;
74880;PMS5003;63427;49.654;6.596;2023-11-22T04:32:25;9;9;
74880;PMS5003;63427;49.654;6.596;2023-11-22T04:34:51;9;8;
74880;PMS5003;63427;49.654;6.596;2023-11-22T04:37:17;8;8;
74880;PMS5003;63427;49.654;6.596;2023-11-22T04:39:43;10;10;
74880;PMS5003;63427;49.654;6.596;2023-11-22T04:42:09;8;6;
74880;PMS5003;63427;49.654;6.596;2023-11-22T04:44:35;9;9;
74880;PMS5003;63427;49.654;6.596;2023-11-22T04:47:01;10;10;
74880;PMS5003;63427;49.654;6.596;2023-11-22T04:49:26;13;13;
74880;PMS5003;63427;49.654;6.596;2023-11-22T04:51:52;12;12;
74880;PMS5003;63427;49.654;6.596;2023-11-22T04:54:17;10;9;
74880;PMS5003;63427;49.654;6.596;2023-11-22T04:56:42;10;10;
74880;PMS5003;63427;49.654;6.596;2023-11-22T04:59:08;10;10;
74880;PMS5003;63427;49.654;6.596;2023-11-22T05:28:17;8;8;
74880;PMS5003;63427;49.654;6.596;2023-11-22T05:30:43;10;9;
74880;PMS5003;63427;49.654;6.596;2023-11-22T05:33:09;12;12;
74880;PMS5003;63427;49.654;6.596;2023-11-22T05:35:36;10;10;
74880;PMS5003;63427;49.654;6.596;2023-11-22T05:38:01;13;13;
74880;PMS5003;63427;49.654;6.596;2023-11-22T05:40:26;10;10;
74880;PMS5003;63427;49.654;6.596;2023-11-22T05:59:52;10;10;
74880;PMS5003;63427;49.654;6.596;2023-11-22T06:02:18;10;9;
74880;PMS5003;63427;49.654;6.596;2023-11-22T06:04:43;6;6;
74880;PMS5003;63427;49.654;6.596;2023-11-22T06:07:09;10;10;
74880;PMS5003;63427;49.654;6.596;2023-11-22T06:09:35;10;10;
74880;PMS5003;63427;49.654;6.596;2023-11-22T06:12:01;11;11;
74880;PMS5003;63427;49.654;6.596;2023-11-22T06:14:26;11;11;
74880;PMS5003;63427;49.654;6.596;2023-11-22T06:16:52;11;10;
74880;PMS5003;63427;49.654;6.596;2023-11-22T06:26:35;8;7;
74880;PMS5003;63427;49.654;6.596;2023-11-22T06:29:01;13;12;
74880;PMS5003;63427;49.654;6.596;2023-11-22T06:31:27;11;10;
74880;PMS5003;63427;49.654;6.596;2023-11-22T06:33:52;11;11;
74880;PMS5003;63427;49.654;6.596;2023-11-22T06:36:18;11;11;
74880;PMS5003;63427;49.654;6.596;2023-11-22T06:38:44;10;10;
74880;PMS5003;63427;49.654;6.596;2023-11-22T06:41:09;12;11;
74880;PMS5003;63427;49.654;6.596;2023-11-22T06:43:35;7;7;
74880;PMS5003;63427;49.654;6.596;2023-11-22T06:46:01;13;13;
74880;PMS5003;63427;49.654;6.596;2023-11-22T06:48:27;12;12;
74880;PMS5003;63427;49.654;6.596;2023-11-22T06:50:53;10;10;
74880;PMS5003;63427;49.654;6.596;2023-11-22T06:53:19;11;11;
74880;PMS5003;63427;49.654;6.596;2023-11-22T07:24:53;10;10;
74880;PMS5003;63427;49.654;6.596;2023-11-22T07:27:19;11;11;
74880;PMS5003;63427;49.654;6.596;2023-11-22T07:46:46;10;10;
74880;PMS5003;63427;49.654;6.596;2023-11-22T07:49:11;10;10;
74880;PMS5003;63427;49.654;6.596;2023-11-22T07:51:41;6;6;
74880;PMS5003;63427;49.654;6.596;2023-11-22T07:54:03;8;8;
74880;PMS5003;63427;49.654;6.596;2023-11-22T07:56:29;11;10;
74880;PMS5003;63427;49.654;6.596;2023-11-22T07:58:54;7;7;
74880;PMS5003;63427;49.654;6.596;2023-11-22T08:01:21;9;9;
74880;PMS5003;63427;49.654;6.596;2023-11-22T08:03:46;12;12;
74880;PMS5003;63427;49.654;6.596;2023-11-22T08:06:12;12;11;
74880;PMS5003;63427;49.654;6.596;2023-11-22T08:08:37;16;16;
74880;PMS5003;63427;49.654;6.596;2023-11-22T08:11:18;14;13;
74880;PMS5003;63427;49.654;6.596;2023-11-22T08:13:29;26;26;
74880;PMS5003;63427;49.654;6.596;2023-11-22T08:15:54;20;19;
74880;PMS5003;63427;49.654;6.596;2023-11-22T08:18:19;29;26;
74880;PMS5003;63427;49.654;6.596;2023-11-22T08:20:44;19;17;
74880;PMS5003;63427;49.654;6.596;2023-11-22T08:25:36;25;24;
74880;PMS5003;63427;49.654;6.596;2023-11-22T08:28:01;19;19;
74880;PMS5003;63427;49.654;6.596;2023-11-22T08:30:26;25;24;
74880;PMS5003;63427;49.654;6.596;2023-11-22T08:32:52;19;19;
74880;PMS5003;63427;49.654;6.596;2023-11-22T08:35:17;18;18;
74880;PMS5003;63427;49.654;6.596;2023-11-22T08:38:01;19;19;
74880;PMS5003;63427;49.654;6.596;2023-11-22T08:40:09;15;14;
74880;PMS5003;63427;49.654;6.596;2023-11-22T08:42:33;17;16;
74880;PMS5003;63427;49.654;6.596;2023-11-22T08:45:00;11;11;
74880;PMS5003;63427;49.654;6.596;2023-11-22T08:47:25;8;8;
74880;PMS5003;63427;49.654;6.596;2023-11-22T08:49:53;8;7;
74880;PMS5003;63427;49.654;6.596;2023-11-22T08:52:16;8;8;
74880;PMS5003;63427;49.654;6.596;2023-11-22T08:54:41;8;7;
74880;PMS5003;63427;49.654;6.596;2023-11-22T08:57:07;8;7;
74880;PMS5003;63427;49.654;6.596;2023-11-22T08:59:33;6;6;
74880;PMS5003;63427;49.654;6.596;2023-11-22T09:02:00;5;5;
74880;PMS5003;63427;49.654;6.596;2023-11-22T09:04:24;6;5;
74880;PMS5003;63427;49.654;6.596;2023-11-22T09:06:50;6;6;
74880;PMS5003;63427;49.654;6.596;2023-11-22T09:09:15;4;4;
74880;PMS5003;63427;49.654;6.596;2023-11-22T09:11:41;3;3;
74880;PMS5003;63427;49.654;6.596;2023-11-22T09:14:06;3;3;
74880;PMS5003;63427;49.654;6.596;2023-11-22T09:19:04;4;4;
74880;PMS5003;63427;49.654;6.596;2023-11-22T09:21:23;3;3;
74880;PMS5003;63427;49.654;6.596;2023-11-22T09:23:49;4;3;
74880;PMS5003;63427;49.654;6.596;2023-11-22T09:26:14;3;3;
74880;PMS5003;63427;49.654;6.596;2023-11-22T09:28:40;9;8;
74880;PMS5003;63427;49.654;6.596;2023-11-22T09:31:05;4;4;
74880;PMS5003;63427;49.654;6.596;2023-11-22T09:33:31;4;4;
74880;PMS5003;63427;49.654;6.596;2023-11-22T09:35:56;3;3;
74880;PMS5003;63427;49.654;6.596;2023-11-22T09:38:22;4;4;
74880;PMS5003;63427;49.654;6.596;2023-11-22T09:40:48;4;4;
74880;PMS5003;63427;49.654;6.596;2023-11-22T09:43:17;5;4;
74880;PMS5003;63427;49.654;6.596;2023-11-22T09:48:05;5;5;
74880;PMS5003;63427;49.654;6.596;2023-11-22T09:55:21;2;2;
74880;PMS5003;63427;49.654;6.596;2023-11-22T09:57:46;2;2;
74880;PMS5003;63427;49.654;6.596;2023-11-22T10:00:12;3;2;
74880;PMS5003;63427;49.654;6.596;2023-11-22T10:02:38;7;7;
74880;PMS5003;63427;49.654;6.596;2023-11-22T10:05:04;4;4;
74880;PMS5003;63427;49.654;6.596;2023-11-22T10:07:29;3;3;
74880;PMS5003;63427;49.654;6.596;2023-11-22T10:09:54;6;5;
74880;PMS5003;63427;49.654;6.596;2023-11-22T10:12:19;3;3;
74880;PMS5003;63427;49.654;6.596;2023-11-22T10:14:45;3;3;
74880;PMS5003;63427;49.654;6.596;2023-11-22T10:17:10;3;3;
74880;PMS5003;63427;49.654;6.596;2023-11-22T10:19:36;2;2;
74880;PMS5003;63427;49.654;6.596;2023-11-22T10:22:02;3;3;
74880;PMS5003;63427;49.654;6.596;2023-11-22T10:24:30;3;3;
74880;PMS5003;63427;49.654;6.596;2023-11-22T10:26:52;4;3;
74880;PMS5003;63427;49.654;6.596;2023-11-22T10:29:18;3;3;
74880;PMS5003;63427;49.654;6.596;2023-11-22T10:31:44;4;4;
74880;PMS5003;63427;49.654;6.596;2023-11-22T10:34:09;4;4;
74880;PMS5003;63427;49.654;6.596;2023-11-22T10:36:35;3;3;
74880;PMS5003;63427;49.654;6.596;2023-11-22T10:39:00;2;2;
74880;PMS5003;63427;49.654;6.596;2023-11-22T10:41:25;2;2;
74880;PMS5003;63427;49.654;6.596;2023-11-22T10:43:51;2;2;
74880;PMS5003;63427;49.654;6.596;2023-11-22T10:46:16;6;6;
74880;PMS5003;63427;49.654;6.596;2023-11-22T10:48:42;1;1;
74880;PMS5003;63427;49.654;6.596;2023-11-22T10:51:07;2;2;
74880;PMS5003;63427;49.654;6.596;2023-11-22T10:53:33;2;2;
74880;PMS5003;63427;49.654;6.596;2023-11-22T10:58:23;0;0;
74880;PMS5003;63427;49.654;6.596;2023-11-22T11:00:49;1;1;
74880;PMS5003;63427;49.654;6.596;2023-11-22T11:05:41;1;1;
74880;PMS5003;63427;49.654;6.596;2023-11-22T11:08:06;0;0;
74880;PMS5003;63427;49.654;6.596;2023-11-22T11:17:46;2;2;
74880;PMS5003;63427;49.654;6.596;2023-11-22T11:20:12;3;3;
74880;PMS5003;63427;49.654;6.596;2023-11-22T11:29:53;2;2;
74880;PMS5003;63427;49.654;6.596;2023-11-22T11:34:47;1;1;
74880;PMS5003;63427;49.654;6.596;2023-11-22T11:37:10;1;1;
74880;PMS5003;63427;49.654;6.596;2023-11-22T11:39:35;3;3;
74880;PMS5003;63427;49.654;6.596;2023-11-22T11:42:08;0;0;
74880;PMS5003;63427;49.654;6.596;2023-11-22T11:44:25;1;1;
74880;PMS5003;63427;49.654;6.596;2023-11-22T11:46:51;3;2;
74880;PMS5003;63427;49.654;6.596;2023-11-22T11:49:16;1;1;
74880;PMS5003;63427;49.654;6.596;2023-11-22T11:51:41;2;2;
74880;PMS5003;63427;49.654;6.596;2023-11-22T11:54:08;3;2;
74880;PMS5003;63427;49.654;6.596;2023-11-22T11:56:32;1;1;
74880;PMS5003;63427;49.654;6.596;2023-11-22T11:58:57;1;1;
74880;PMS5003;63427;49.654;6.596;2023-11-22T12:01:28;2;2;
74880;PMS5003;63427;49.654;6.596;2023-11-22T12:03:47;2;2;
74880;PMS5003;63427;49.654;6.596;2023-11-22T12:06:14;1;1;
74880;PMS5003;63427;49.654;6.596;2023-11-22T12:08:38;1;1;
74880;PMS5003;63427;49.654;6.596;2023-11-22T12:11:03;1;1;
74880;PMS5003;63427;49.654;6.596;2023-11-22T12:13:28;0;0;
74880;PMS5003;63427;49.654;6.596;2023-11-22T12:15:54;3;3;
74880;PMS5003;63427;49.654;6.596;2023-11-22T12:18:19;1;1;
74880;PMS5003;63427;49.654;6.596;2023-11-22T12:23:09;9;8;
74880;PMS5003;63427;49.654;6.596;2023-11-22T12:25:35;2;2;
74880;PMS5003;63427;49.654;6.596;2023-11-22T12:28:00;1;1;
74880;PMS5003;63427;49.654;6.596;2023-11-22T12:30:32;0;0;
74880;PMS5003;63427;49.654;6.596;2023-11-22T12:32:51;1;1;
74880;PMS5003;63427;49.654;6.596;2023-11-22T12:35:16;1;1;
74880;PMS5003;63427;49.654;6.596;2023-11-22T12:37:41;2;2;
74880;PMS5003;63427;49.654;6.596;2023-11-22T12:40:08;2;2;
74880;PMS5003;63427;49.654;6.596;2023-11-22T12:42:31;2;1;
74880;PMS5003;63427;49.654;6.596;2023-11-22T12:44:57;2;1;
74880;PMS5003;63427;49.654;6.596;2023-11-22T12:49:47;1;1;
74880;PMS5003;63427;49.654;6.596;2023-11-22T12:52:13;1;1;
74880;PMS5003;63427;49.654;6.596;2023-11-22T12:54:41;1;1;
74880;PMS5003;63427;49.654;6.596;2023-11-22T12:57:03;1;1;
74880;PMS5003;63427;49.654;6.596;2023-11-22T12:59:28;0;0;
74880;PMS5003;63427;49.654;6.596;2023-11-22T13:01:54;1;1;
74880;PMS5003;63427;49.654;6.596;2023-11-22T13:04:25;2;1;
74880;PMS5003;63427;49.654;6.596;2023-11-22T13:06:44;2;2;
74880;PMS5003;63427;49.654;6.596;2023-11-22T13:23:41;1;1;
74880;PMS5003;63427;49.654;6.596;2023-11-22T13:26:06;3;3;
74880;PMS5003;63427;49.654;6.596;2023-11-22T13:28:32;2;2;
74880;PMS5003;63427;49.654;6.596;2023-11-22T13:30:57;1;1;
74880;PMS5003;63427;49.654;6.596;2023-11-22T13:33:22;2;2;
74880;PMS5003;63427;49.654;6.596;2023-11-22T13:35:47;1;1;
74880;PMS5003;63427;49.654;6.596;2023-11-22T13:38:13;1;1;
74880;PMS5003;63427;49.654;6.596;2023-11-22T13:40:38;1;1;
74880;PMS5003;63427;49.654;6.596;2023-11-22T13:43:03;2;1;
74880;PMS5003;63427;49.654;6.596;2023-11-22T13:47:54;1;1;
74880;PMS5003;63427;49.654;6.596;2023-11-22T13:50:19;1;1;
74880;PMS5003;63427;49.654;6.596;2023-11-22T13:52:44;5;5;
74880;PMS5003;63427;49.654;6.596;2023-11-22T13:55:13;4;4;
74880;PMS5003;63427;49.654;6.596;2023-11-22T13:57:35;4;4;
74880;PMS5003;63427;49.654;6.596;2023-11-22T14:00:01;4;4;
74880;PMS5003;63427;49.654;6.596;2023-11-22T14:02:25;1;1;
74880;PMS5003;63427;49.654;6.596;2023-11-22T14:04:51;1;1;
74880;PMS5003;63427;49.654;6.596;2023-11-22T14:07:16;2;2;
74880;PMS5003;63427;49.654;6.596;2023-11-22T14:09:41;1;1;
74880;PMS5003;63427;49.654;6.596;2023-11-22T14:12:06;0;0;
74880;PMS5003;63427;49.654;6.596;2023-11-22T14:14:32;0;0;
74880;PMS5003;63427;49.654;6.596;2023-11-22T14:16:57;1;1;
74880;PMS5003;63427;49.654;6.596;2023-11-22T14:21:47;1;1;
74880;PMS5003;63427;49.654;6.596;2023-11-22T14:24:13;5;5;
74880;PMS5003;63427;49.654;6.596;2023-11-22T14:26:38;2;2;
74880;PMS5003;63427;49.654;6.596;2023-11-22T14:29:03;2;2;
74880;PMS5003;63427;49.654;6.596;2023-11-22T14:31:28;1;1;
74880;PMS5003;63427;49.654;6.596;2023-11-22T14:33:54;4;4;
74880;PMS5003;63427;49.654;6.596;2023-11-22T14:36:26;1;1;
74880;PMS5003;63427;49.654;6.596;2023-11-22T14:38:44;1;1;
74880;PMS5003;63427;49.654;6.596;2023-11-22T14:41:10;3;3;
74880;PMS5003;63427;49.654;6.596;2023-11-22T14:43:35;2;2;
74880;PMS5003;63427;49.654;6.596;2023-11-22T14:46:00;2;1;
74880;PMS5003;63427;49.654;6.596;2023-11-22T14:48:26;1;1;
74880;PMS5003;63427;49.654;6.596;2023-11-22T14:50:51;3;3;
74880;PMS5003;63427;49.654;6.596;2023-11-22T14:53:16;2;2;
74880;PMS5003;63427;49.654;6.596;2023-11-22T14:55:41;4;4;
74880;PMS5003;63427;49.654;6.596;2023-11-22T14:58:07;5;4;
74880;PMS5003;63427;49.654;6.596;2023-11-22T15:00:32;1;1;
74880;PMS5003;63427;49.654;6.596;2023-11-22T15:02:58;2;2;
74880;PMS5003;63427;49.654;6.596;2023-11-22T15:05:23;2;2;
74880;PMS5003;63427;49.654;6.596;2023-11-22T15:07:48;3;3;
74880;PMS5003;63427;49.654;6.596;2023-11-22T15:10:14;2;2;
74880;PMS5003;63427;49.654;6.596;2023-11-22T15:12:39;2;2;
74880;PMS5003;63427;49.654;6.596;2023-11-22T15:15:05;1;1;
74880;PMS5003;63427;49.654;6.596;2023-11-22T15:17:30;3;3;
74880;PMS5003;63427;49.654;6.596;2023-11-22T15:19:55;5;5;
74880;PMS5003;63427;49.654;6.596;2023-11-22T15:22:21;3;3;
74880;PMS5003;63427;49.654;6.596;2023-11-22T15:24:46;2;2;
74880;PMS5003;63427;49.654;6.596;2023-11-22T15:27:12;3;3;
74880;PMS5003;63427;49.654;6.596;2023-11-22T15:29:37;2;2;
74880;PMS5003;63427;49.654;6.596;2023-11-22T15:32:03;1;1;
74880;PMS5003;63427;49.654;6.596;2023-11-22T15:34:28;2;2;
74880;PMS5003;63427;49.654;6.596;2023-11-22T15:36:55;3;3;
74880;PMS5003;63427;49.654;6.596;2023-11-22T15:39:19;4;4;
74880;PMS5003;63427;49.654;6.596;2023-11-22T15:41:45;4;4;
74880;PMS5003;63427;49.654;6.596;2023-11-22T15:44:10;4;4;
74880;PMS5003;63427;49.654;6.596;2023-11-22T15:46:36;6;6;
74880;PMS5003;63427;49.654;6.596;2023-11-22T15:49:02;5;5;
74880;PMS5003;63427;49.654;6.596;2023-11-22T15:51:27;4;4;
74880;PMS5003;63427;49.654;6.596;2023-11-22T15:53:53;1;1;
74880;PMS5003;63427;49.654;6.596;2023-11-22T15:56:18;3;2;
74880;PMS5003;63427;49.654;6.596;2023-11-22T15:58:44;4;4;
74880;PMS5003;63427;49.654;6.596;2023-11-22T16:01:10;3;3;
74880;PMS5003;63427;49.654;6.596;2023-11-22T16:03:35;5;5;
74880;PMS5003;63427;49.654;6.596;2023-11-22T16:06:01;16;15;
74880;PMS5003;63427;49.654;6.596;2023-11-22T16:08:26;10;10;
74880;PMS5003;63427;49.654;6.596;2023-11-22T16:10:52;10;8;
74880;PMS5003;63427;49.654;6.596;2023-11-22T16:13:18;20;20;
74880;PMS5003;63427;49.654;6.596;2023-11-22T16:15:50;10;10;
74880;PMS5003;63427;49.654;6.596;2023-11-22T16:18:09;17;17;
74880;PMS5003;63427;49.654;6.596;2023-11-22T16:20:48;17;17;
74880;PMS5003;63427;49.654;6.596;2023-11-22T16:23:00;12;12;
74880;PMS5003;63427;49.654;6.596;2023-11-22T16:25:26;11;10;
74880;PMS5003;63427;49.654;6.596;2023-11-22T16:27:56;38;38;
74880;PMS5003;63427;49.654;6.596;2023-11-22T16:30:17;40;40;
74880;PMS5003;63427;49.654;6.596;2023-11-22T16:32:43;29;29;
74880;PMS5003;63427;49.654;6.596;2023-11-22T16:35:10;12;12;
74880;PMS5003;63427;49.654;6.596;2023-11-22T16:37:34;49;49;
74880;PMS5003;63427;49.654;6.596;2023-11-22T16:39:59;6;6;
74880;PMS5003;63427;49.654;6.596;2023-11-22T16:42:25;7;7;
74880;PMS5003;63427;49.654;6.596;2023-11-22T16:44:50;8;8;
74880;PMS5003;63427;49.654;6.596;2023-11-22T16:47:16;8;8;
74880;PMS5003;63427;49.654;6.596;2023-11-22T16:49:42;6;6;
74880;PMS5003;63427;49.654;6.596;2023-11-22T16:52:07;4;4;
74880;PMS5003;63427;49.654;6.596;2023-11-22T16:54:34;4;4;
74880;PMS5003;63427;49.654;6.596;2023-11-22T16:56:59;4;4;
74880;PMS5003;63427;49.654;6.596;2023-11-22T16:59:25;3;3;
74880;PMS5003;63427;49.654;6.596;2023-11-22T17:01:50;2;2;
74880;PMS5003;63427;49.654;6.596;2023-11-22T17:04:16;9;9;
74880;PMS5003;63427;49.654;6.596;2023-11-22T17:06:41;7;6;
74880;PMS5003;63427;49.654;6.596;2023-11-22T17:11:39;8;8;
74880;PMS5003;63427;49.654;6.596;2023-11-22T17:13:59;13;13;
74880;PMS5003;63427;49.654;6.596;2023-11-22T17:16:24;9;9;
74880;PMS5003;63427;49.654;6.596;2023-11-22T17:18:50;7;7;
74880;PMS5003;63427;49.654;6.596;2023-11-22T17:21:16;4;4;
74880;PMS5003;63427;49.654;6.596;2023-11-22T17:28:33;6;6;
74880;PMS5003;63427;49.654;6.596;2023-11-22T17:30:58;5;5;
74880;PMS5003;63427;49.654;6.596;2023-11-22T17:33:24;4;4;
74880;PMS5003;63427;49.654;6.596;2023-11-22T17:35:50;4;3;
74880;PMS5003;63427;49.654;6.596;2023-11-22T17:40:42;7;7;
74880;PMS5003;63427;49.654;6.596;2023-11-22T17:43:13;7;7;
74880;PMS5003;63427;49.654;6.596;2023-11-22T17:45:33;7;7;
74880;PMS5003;63427;49.654;6.596;2023-11-22T17:47:59;7;6;
74880;PMS5003;63427;49.654;6.596;2023-11-22T17:50:26;5;5;
74880;PMS5003;63427;49.654;6.596;2023-11-22T17:52:50;5;5;
74880;PMS5003;63427;49.654;6.596;2023-11-22T17:55:16;6;6;
74880;PMS5003;63427;49.654;6.596;2023-11-22T17:57:41;7;6;
74880;PMS5003;63427;49.654;6.596;2023-11-22T18:00:07;9;9;
74880;PMS5003;63427;49.654;6.596;2023-11-22T18:02:33;12;12;
74880;PMS5003;63427;49.654;6.596;2023-11-22T18:04:58;6;6;
74880;PMS5003;63427;49.654;6.596;2023-11-22T18:07:24;12;11;
74880;PMS5003;63427;49.654;6.596;2023-11-22T18:09:54;6;5;
74880;PMS5003;63427;49.654;6.596;2023-11-22T18:12:15;4;3;
74880;PMS5003;63427;49.654;6.596;2023-11-22T18:14:41;10;10;
74880;PMS5003;63427;49.654;6.596;2023-11-22T18:17:07;16;16;
74880;PMS5003;63427;49.654;6.596;2023-11-22T18:19:42;23;23;
74880;PMS5003;63427;49.654;6.596;2023-11-22T18:21:58;18;17;
74880;PMS5003;63427;49.654;6.596;2023-11-22T18:26:49;11;11;
74880;PMS5003;63427;49.654;6.596;2023-11-22T18:29:15;4;4;
74880;PMS5003;63427;49.654;6.596;2023-11-22T18:31:40;4;4;
74880;PMS5003;63427;49.654;6.596;2023-11-22T18:34:06;5;4;
74880;PMS5003;63427;49.654;6.596;2023-11-22T18:36:32;8;8;
74880;PMS5003;63427;49.654;6.596;2023-11-22T18:38:58;12;12;
74880;PMS5003;63427;49.654;6.596;2023-11-22T18:41:24;12;12;
74880;PMS5003;63427;49.654;6.596;2023-11-22T18:43:50;11;11;
74880;PMS5003;63427;49.654;6.596;2023-11-22T18:46:15;6;6;
74880;PMS5003;63427;49.654;6.596;2023-11-22T18:48:41;9;7;
74880;PMS5003;63427;49.654;6.596;2023-11-22T18:51:07;7;6;
74880;PMS5003;63427;49.654;6.596;2023-11-22T18:53:33;7;7;
74880;PMS5003;63427;49.654;6.596;2023-11-22T18:55:59;6;6;
74880;PMS5003;63427;49.654;6.596;2023-11-22T18:58:24;6;6;
74880;PMS5003;63427;49.654;6.596;2023-11-22T19:00:50;5;5;
74880;PMS5003;63427;49.654;6.596;2023-11-22T19:03:16;7;7;
74880;PMS5003;63427;49.654;6.596;2023-11-22T19:05:43;6;5;
74880;PMS5003;63427;49.654;6.596;2023-11-22T19:08:17;7;6;
74880;PMS5003;63427;49.654;6.596;2023-11-22T19:10:33;13;12;
74880;PMS5003;63427;49.654;6.596;2023-11-22T19:12:59;13;12;
74880;PMS5003;63427;49.654;6.596;2023-11-22T19:15:27;24;23;
74880;PMS5003;63427;49.654;6.596;2023-11-22T19:17:50;22;20;
74880;PMS5003;63427;49.654;6.596;2023-11-22T19:20:15;22;21;
74880;PMS5003;63427;49.654;6.596;2023-11-22T19:22:46;14;13;
74880;PMS5003;63427;49.654;6.596;2023-11-22T19:25:07;15;14;
74880;PMS5003;63427;49.654;6.596;2023-11-22T19:27:32;24;23;
74880;PMS5003;63427;49.654;6.596;2023-11-22T19:29:58;25;24;
74880;PMS5003;63427;49.654;6.596;2023-11-22T19:32:44;34;30;
74880;PMS5003;63427;49.654;6.596;2023-11-22T19:34:49;51;48;
74880;PMS5003;63427;49.654;6.596;2023-11-22T19:37:15;32;31;
74880;PMS5003;63427;49.654;6.596;2023-11-22T19:39:40;31;30;
74880;PMS5003;63427;49.654;6.596;2023-11-22T19:42:12;38;36;
74880;PMS5003;63427;49.654;6.596;2023-11-22T19:44:32;30;29;
74880;PMS5003;63427;49.654;6.596;2023-11-22T19:46:57;33;32;
74880;PMS5003;63427;49.654;6.596;2023-11-22T19:49:35;14;13;
74880;PMS5003;63427;49.654;6.596;2023-11-22T19:54:13;18;16;
74880;PMS5003;63427;49.654;6.596;2023-11-22T19:56:39;15;15;
74880;PMS5003;63427;49.654;6.596;2023-11-22T19:59:05;13;13;
74880;PMS5003;63427;49.654;6.596;2023-11-22T20:01:31;12;12;